Time;durP1;ratioP1;P1;durP2;ratioP2;P2;SDS_P1;SDS_P2;PMS_P1;PMS_P2;Temp;Humidity;BMP_temperature;BMP_pressure;BME280_temperature;BME280_humidity;BME280_pressure;Samples;Min_cycle;Max_cycle;Signal;HPM_P1;HPM_P2
2023/08/02 00:04:46;;;;;;;2.00;1.73;;;21.50;41.20;;;;;;10278184;28;20784;-77
2023/08/02 00:09:49;;;;;;;1.57;1.47;;;21.40;41.10;;;;;;10271507;28;20302;-76
2023/08/02 00:14:54;;;;;;;1.30;1.30;;;21.30;41.00;;;;;;10279897;28;20260;-76
2023/08/02 00:19:57;;;;;;;1.53;1.37;;;21.20;41.10;;;;;;10266652;28;20594;-76
2023/08/02 00:25:00;;;;;;;1.93;1.53;;;21.20;40.60;;;;;;10272418;28;20261;-76
2023/08/02 00:30:06;;;;;;;1.87;1.57;;;21.10;40.60;;;;;;10274950;28;20660;-76
2023/08/02 00:35:10;;;;;;;1.33;1.23;;;21.00;40.50;;;;;;10270320;28;20239;-76
2023/08/02 00:40:13;;;;;;;2.13;1.50;;;20.90;40.40;;;;;;10271036;28;20263;-76
2023/08/02 00:45:18;;;;;;;1.40;1.20;;;20.70;40.50;;;;;;10280974;28;20228;-76
2023/08/02 00:50:22;;;;;;;2.00;1.47;;;20.60;40.70;;;;;;10285536;28;20243;-76
2023/08/02 00:55:25;;;;;;;2.77;1.60;;;20.40;40.70;;;;;;10279283;28;20262;-76
2023/08/02 01:00:30;;;;;;;1.63;1.50;;;20.30;40.80;;;;;;10277536;28;20812;-76
2023/08/02 01:05:40;;;;;;;1.53;1.40;;;20.20;41.00;;;;;;10275363;28;20716;-76
2023/08/02 01:10:50;;;;;;;1.80;1.50;;;20.10;41.10;;;;;;10282854;28;20244;-76
2023/08/02 01:15:55;;;;;;;1.80;1.40;;;19.90;41.20;;;;;;10277539;28;20322;-76
2023/08/02 01:20:59;;;;;;;1.57;1.47;;;19.80;41.20;;;;;;10274334;28;20231;-76
2023/08/02 01:26:05;;;;;;;2.53;1.60;;;19.70;41.40;;;;;;10279546;28;20234;-76
2023/08/02 01:31:10;;;;;;;1.73;1.40;;;19.60;42.50;;;;;;10273932;28;20252;-77
2023/08/02 01:36:15;;;;;;;1.60;1.50;;;19.50;41.90;;;;;;10277657;28;20236;-76
2023/08/02 01:41:18;;;;;;;2.30;1.40;;;19.40;41.90;;;;;;10277142;28;20231;-76
2023/08/02 01:46:21;;;;;;;2.70;1.50;;;19.40;41.70;;;;;;10279253;28;21091;-76
2023/08/02 01:51:26;;;;;;;1.77;1.57;;;19.30;41.70;;;;;;10275914;28;20828;-76
2023/08/02 01:56:29;;;;;;;1.50;1.40;;;19.20;42.10;;;;;;10279785;28;20326;-76
2023/08/02 02:01:32;;;;;;;1.70;1.27;;;19.20;42.00;;;;;;10278435;28;20290;-76
2023/08/02 02:06:37;;;;;;;2.13;1.73;;;19.10;41.90;;;;;;10276721;28;20242;-76
2023/08/02 02:11:40;;;;;;;2.57;1.50;;;19.10;42.30;;;;;;10277290;28;20239;-76
2023/08/02 02:16:43;;;;;;;1.50;1.40;;;19.00;42.00;;;;;;10274587;28;20237;-76
2023/08/02 02:21:48;;;;;;;1.97;1.27;;;19.00;42.20;;;;;;10274287;28;20279;-76
2023/08/02 02:26:51;;;;;;;1.40;1.33;;;18.80;42.70;;;;;;10271937;28;20242;-77
2023/08/02 02:31:54;;;;;;;1.57;1.47;;;18.70;42.30;;;;;;10271962;28;20243;-76
2023/08/02 02:36:59;;;;;;;1.77;1.50;;;18.70;42.40;;;;;;10275111;28;20291;-76
2023/08/02 02:42:02;;;;;;;1.80;1.70;;;18.60;42.90;;;;;;10274143;28;20230;-76
2023/08/02 02:47:05;;;;;;;1.60;1.50;;;18.50;42.60;;;;;;10270536;28;20224;-75
2023/08/02 02:52:10;;;;;;;1.60;1.50;;;18.50;42.60;;;;;;10281275;28;20231;-76
2023/08/02 02:57:15;;;;;;;1.97;1.70;;;18.40;43.00;;;;;;10274969;28;20235;-76
2023/08/02 03:02:18;;;;;;;2.13;1.50;;;18.30;42.70;;;;;;10277546;28;20657;-76
2023/08/02 03:07:23;;;;;;;1.90;1.50;;;18.30;42.80;;;;;;10265045;28;20705;-76
2023/08/02 03:12:26;;;;;;;2.33;1.50;;;18.20;43.30;;;;;;10266439;28;20251;-77
2023/08/02 03:17:29;;;;;;;1.97;1.77;;;18.20;43.10;;;;;;10269959;28;20236;-77
2023/08/02 03:22:34;;;;;;;1.80;1.70;;;18.20;43.20;;;;;;10275174;28;20231;-76
2023/08/02 03:27:37;;;;;;;2.30;1.73;;;18.10;43.70;;;;;;10275183;28;20330;-76
2023/08/02 03:32:40;;;;;;;1.67;1.57;;;18.10;43.40;;;;;;10269033;28;20225;-76
2023/08/02 03:37:45;;;;;;;2.10;1.83;;;18.00;43.30;;;;;;10268034;28;20343;-76
2023/08/02 03:42:48;;;;;;;2.23;1.63;;;18.00;43.80;;;;;;10269031;28;20754;-76
2023/08/02 03:47:51;;;;;;;1.83;1.60;;;18.00;43.60;;;;;;10274735;28;20247;-76
2023/08/02 03:52:58;;;;;;;1.60;1.50;;;17.90;43.60;;;;;;10272256;28;20238;-76
2023/08/02 03:58:01;;;;;;;1.80;1.70;;;17.90;43.80;;;;;;10270934;28;20246;-76
2023/08/02 04:03:04;;;;;;;1.77;1.67;;;17.90;43.60;;;;;;10264357;28;20591;-76
2023/08/02 04:08:09;;;;;;;2.30;1.60;;;17.80;43.50;;;;;;10275472;28;20719;-76
2023/08/02 04:13:12;;;;;;;2.13;1.73;;;17.80;43.90;;;;;;10262657;28;20235;-76
2023/08/02 04:18:15;;;;;;;2.10;1.90;;;17.80;43.60;;;;;;10274935;28;20228;-76
2023/08/02 04:23:20;;;;;;;3.57;1.83;;;17.70;43.60;;;;;;10277346;28;20235;-76
2023/08/02 04:28:23;;;;;;;3.00;2.00;;;17.70;44.10;;;;;;10267754;28;20236;-76
2023/08/02 04:33:26;;;;;;;2.17;1.97;;;17.70;43.80;;;;;;10267684;28;21795;-76
2023/08/02 04:38:31;;;;;;;3.47;2.03;;;17.70;43.90;;;;;;10269716;28;20243;-76
2023/08/02 04:43:34;;;;;;;4.17;2.13;;;17.70;44.30;;;;;;10273096;28;20241;-76
2023/08/02 04:48:37;;;;;;;2.90;2.20;;;17.70;44.10;;;;;;10270092;28;20259;-76
2023/08/02 04:53:43;;;;;;;2.57;1.80;;;17.70;44.20;;;;;;10274714;28;20241;-76
2023/08/02 04:58:47;;;;;;;2.43;2.07;;;17.70;44.70;;;;;;10266219;28;20239;-76
2023/08/02 05:03:50;;;;;;;2.47;2.10;;;17.80;44.60;;;;;;10270610;28;20232;-76
2023/08/02 05:08:55;;;;;;;2.77;2.10;;;17.90;44.30;;;;;;10263038;28;20233;-75
2023/08/02 05:13:58;;;;;;;2.63;2.17;;;17.90;44.70;;;;;;10266661;28;20865;-75
2023/08/02 05:19:01;;;;;;;2.43;2.20;;;18.00;44.70;;;;;;10264560;28;20250;-75
2023/08/02 05:24:06;;;;;;;2.80;2.47;;;18.00;44.70;;;;;;10273805;28;20254;-76
2023/08/02 05:29:09;;;;;;;2.50;2.30;;;18.10;45.30;;;;;;10284187;28;20244;-76
2023/08/02 05:34:12;;;;;;;6.13;2.70;;;18.20;45.00;;;;;;10276627;28;20244;-76
2023/08/02 05:39:16;;;;;;;2.80;2.27;;;18.40;45.00;;;;;;10264307;28;20286;-76
2023/08/02 05:44:19;;;;;;;2.77;2.33;;;18.50;45.20;;;;;;10270045;28;20223;-75
2023/08/02 05:49:23;;;;;;;2.93;2.67;;;18.60;44.80;;;;;;10286952;28;20724;-76
2023/08/02 05:54:27;;;;;;;2.57;2.30;;;18.70;44.70;;;;;;10276131;28;20231;-76
2023/08/02 05:59:31;;;;;;;2.60;2.33;;;18.70;45.00;;;;;;10273820;28;20330;-76
2023/08/02 06:04:36;;;;;;;3.27;2.60;;;18.80;44.80;;;;;;10276291;28;20782;-76
2023/08/02 06:09:41;;;;;;;2.90;2.70;;;18.90;45.40;;;;;;10279872;28;20239;-76
2023/08/02 06:14:44;;;;;;;2.70;2.50;;;19.00;45.30;;;;;;10283556;28;20227;-76
2023/08/02 06:19:47;;;;;;;2.80;2.60;;;19.10;44.80;;;;;;10282671;28;20243;-76
2023/08/02 06:24:52;;;;;;;3.33;2.40;;;19.20;44.70;;;;;;10268534;28;20236;-76
2023/08/02 06:29:55;;;;;;;5.23;2.50;;;19.30;44.70;;;;;;10265107;28;20297;-76
2023/08/02 06:34:58;;;;;;;3.23;2.60;;;19.30;44.40;;;;;;10281163;28;20255;-76
2023/08/02 06:40:03;;;;;;;3.13;2.83;;;19.30;44.40;;;;;;10280144;28;20232;-76
2023/08/02 06:45:07;;;;;;;4.23;2.63;;;19.40;44.50;;;;;;10272630;28;20315;-76
2023/08/02 06:50:11;;;;;;;2.87;2.60;;;19.50;44.60;;;;;;10282015;28;20319;-76
2023/08/02 06:55:16;;;;;;;3.80;2.97;;;19.50;44.60;;;;;;10273414;28;20259;-73
2023/08/02 07:00:20;;;;;;;3.00;2.60;;;19.50;44.70;;;;;;10275042;28;20326;-72
2023/08/02 07:05:26;;;;;;;3.23;2.60;;;19.60;44.60;;;;;;10281587;28;20231;-72
2023/08/02 07:10:32;;;;;;;2.83;2.50;;;19.60;44.80;;;;;;10278920;28;20235;-71
2023/08/02 07:15:35;;;;;;;3.30;2.70;;;19.60;45.40;;;;;;10259538;28;20232;-72
2023/08/02 07:20:38;;;;;;;3.23;2.17;;;19.60;45.10;;;;;;10249165;28;20244;-73
2023/08/02 07:25:43;;;;;;;2.70;2.50;;;19.60;45.20;;;;;;10272163;28;20251;-72
2023/08/02 07:30:46;;;;;;;3.17;2.40;;;19.60;45.40;;;;;;10263781;28;20262;-72
2023/08/02 07:35:49;;;;;;;3.47;2.23;;;19.60;45.20;;;;;;10265097;28;20236;-73
2023/08/02 07:40:54;;;;;;;2.77;2.50;;;19.50;45.40;;;;;;10275229;28;20338;-73
2023/08/02 07:45:57;;;;;;;3.03;2.33;;;19.50;45.90;;;;;;10279935;28;20236;-73
2023/08/02 07:51:04;;;;;;;2.80;2.47;;;19.40;45.40;;;;;;10279814;28;20646;-73
2023/08/02 07:56:09;;;;;;;2.77;2.43;;;19.30;46.20;;;;;;10279767;28;20250;-72
2023/08/02 08:01:12;;;;;;;2.90;2.37;;;19.30;46.10;;;;;;10256021;28;20239;-73
2023/08/02 08:06:19;;;;;;;2.60;2.40;;;19.20;46.60;;;;;;10257815;28;20787;-72
2023/08/02 08:11:27;;;;;;;2.80;2.50;;;19.10;46.30;;;;;;10276385;28;20489;-71
2023/08/02 08:16:31;;;;;;;3.00;2.37;;;19.10;47.30;;;;;;10259955;28;20262;-73
2023/08/02 08:21:34;;;;;;;2.50;2.30;;;19.00;46.50;;;;;;10253263;28;20239;-74
2023/08/02 08:26:38;;;;;;;2.50;2.30;;;19.00;46.90;;;;;;10257756;28;20318;-73
2023/08/02 08:31:41;;;;;;;2.40;2.20;;;19.00;47.90;;;;;;10252963;28;20315;-73
2023/08/02 08:36:46;;;;;;;3.13;2.60;;;19.00;47.40;;;;;;10270560;28;20728;-72
2023/08/02 08:41:51;;;;;;;2.83;2.60;;;18.90;47.50;;;;;;10266277;28;20291;-73
2023/08/02 08:46:59;;;;;;;2.60;2.40;;;18.90;47.80;;;;;;10271023;28;20319;-73
2023/08/02 08:52:06;;;;;;;3.30;2.63;;;18.90;47.80;;;;;;10269902;28;20306;-75
2023/08/02 08:57:12;;;;;;;3.77;2.80;;;18.90;49.20;;;;;;10277824;28;20239;-76
2023/08/02 09:02:16;;;;;;;3.63;2.80;;;18.80;49.30;;;;;;10262579;28;20756;-76
2023/08/02 09:07:19;;;;;;;2.90;2.60;;;18.80;48.90;;;;;;10287336;28;20372;-76
2023/08/02 09:12:42;;;;;;;3.00;2.50;;;18.80;48.50;;;;;;10291006;28;20247;-76
2023/08/02 09:17:48;;;;;;;3.33;2.90;;;18.90;50.40;;;;;;10289604;28;20783;-76
2023/08/02 09:22:52;;;;;;;2.60;2.40;;;18.90;49.60;;;;;;10283726;28;20239;-76
2023/08/02 09:27:58;;;;;;;2.70;2.50;;;18.90;49.30;;;;;;10283756;28;20275;-76
2023/08/02 09:33:03;;;;;;;2.63;2.30;;;18.90;50.10;;;;;;10290756;28;20227;-76
2023/08/02 09:38:11;;;;;;;2.97;2.67;;;19.00;50.10;;;;;;10274655;28;20252;-75
2023/08/02 09:43:16;;;;;;;3.37;2.90;;;19.00;51.20;;;;;;10270319;28;20326;-75
2023/08/02 09:48:20;;;;;;;3.50;2.40;;;19.10;50.70;;;;;;10266430;28;20231;-74
2023/08/02 09:53:23;;;;;;;2.67;2.40;;;19.10;49.60;;;;;;10275399;28;20254;-75
2023/08/02 09:58:31;;;;;;;2.60;2.40;;;19.20;49.60;;;;;;10271330;28;20243;-75
2023/08/02 10:03:35;;;;;;;4.60;2.60;;;19.20;51.10;;;;;;10269896;28;20224;-75
2023/08/02 10:08:41;;;;;;;3.37;2.43;;;19.30;49.80;;;;;;10268423;28;20239;-74
2023/08/02 10:13:48;;;;;;;2.60;2.40;;;19.20;50.80;;;;;;10270320;28;20234;-75
2023/08/02 10:18:52;;;;;;;2.87;2.53;;;19.30;51.30;;;;;;10278018;28;20259;-75
2023/08/02 10:23:56;;;;;;;2.30;2.10;;;19.30;50.00;;;;;;10266876;28;20235;-74
2023/08/02 10:29:03;;;;;;;2.33;2.13;;;19.30;50.40;;;;;;10275329;28;20773;-74
2023/08/02 10:34:39;;;;;;;3.60;2.50;;;19.30;51.70;;;;;;10277989;28;20439;-75
2023/08/02 10:39:55;;;;;;;3.50;2.37;;;19.40;52.10;;;;;;10270461;28;20259;-73
2023/08/02 10:45:16;;;;;;;2.27;2.10;;;19.40;52.20;;;;;;10274526;28;20281;-74
2023/08/02 10:50:45;;;;;;;2.27;2.03;;;19.50;52.20;;;;;;10282594;28;20239;-75
2023/08/02 10:56:12;;;;;;;2.20;2.03;;;19.50;52.20;;;;;;10275175;28;20236;-72
2023/08/02 11:01:17;;;;;;;2.27;2.07;;;19.50;52.00;;;;;;10249883;28;20272;-74
2023/08/02 11:06:27;;;;;;;2.53;2.30;;;19.60;51.30;;;;;;10250241;28;20228;-75
2023/08/02 11:11:40;;;;;;;2.43;2.23;;;19.60;52.50;;;;;;10265446;28;20243;-74
2023/08/02 11:16:45;;;;;;;2.40;2.20;;;19.70;50.60;;;;;;10267325;28;20224;-74
2023/08/02 11:21:59;;;;;;;2.60;2.40;;;19.70;50.70;;;;;;10272895;28;20258;-73
2023/08/02 11:27:02;;;;;;;2.50;2.30;;;19.80;50.70;;;;;;10280992;28;20239;-73
2023/08/02 11:32:08;;;;;;;2.50;2.30;;;19.80;50.20;;;;;;10280580;28;20248;-75
2023/08/02 11:37:12;;;;;;;2.47;2.27;;;19.80;50.80;;;;;;10280509;28;21052;-75
2023/08/02 11:42:15;;;;;;;2.63;2.43;;;19.90;50.30;;;;;;10267630;28;20763;-74
2023/08/02 11:47:21;;;;;;;2.90;2.70;;;19.90;50.60;;;;;;10266424;28;20692;-74
2023/08/02 11:52:28;;;;;;;3.10;2.90;;;19.90;52.00;;;;;;10269614;28;20613;-74
2023/08/02 11:57:31;;;;;;;3.03;2.80;;;20.10;51.90;;;;;;10270421;28;20235;-75
2023/08/02 12:02:36;;;;;;;2.73;2.53;;;20.20;51.00;;;;;;10270149;28;20589;-76
2023/08/02 12:07:41;;;;;;;2.77;2.50;;;20.30;51.30;;;;;;10263139;28;20241;-75
2023/08/02 12:12:44;;;;;;;3.10;2.90;;;20.40;51.70;;;;;;10278318;28;20263;-76
2023/08/02 12:18:04;;;;;;;2.93;2.57;;;20.50;51.10;;;;;;10263665;28;20244;-76
2023/08/02 12:23:08;;;;;;;3.10;2.80;;;20.60;53.40;;;;;;10263997;28;20235;-76
2023/08/02 12:28:12;;;;;;;3.00;2.50;;;20.90;52.40;;;;;;10265683;28;20299;-70
2023/08/02 12:33:18;;;;;;;3.00;2.70;;;21.20;52.10;;;;;;10269489;28;20332;-75
2023/08/02 12:38:23;;;;;;;2.67;2.47;;;21.50;52.10;;;;;;10282454;28;20239;-75
2023/08/02 12:43:27;;;;;;;3.23;2.60;;;21.80;51.60;;;;;;10278125;28;20683;-75
2023/08/02 12:48:32;;;;;;;2.30;2.10;;;22.00;51.20;;;;;;10279325;28;20239;-74
2023/08/02 12:53:35;;;;;;;3.20;2.20;;;22.30;50.80;;;;;;10287320;28;20228;-74
2023/08/02 12:58:38;;;;;;;3.13;2.50;;;22.50;50.40;;;;;;10281854;28;20235;-75
2023/08/02 13:03:43;;;;;;;2.60;2.40;;;22.70;50.00;;;;;;10268003;28;20330;-75
2023/08/02 13:08:47;;;;;;;2.47;2.27;;;23.00;50.00;;;;;;10272588;28;20265;-74
2023/08/02 13:13:50;;;;;;;2.63;2.43;;;23.20;49.60;;;;;;10273375;28;20240;-74
2023/08/02 13:18:55;;;;;;;2.10;2.00;;;23.40;49.20;;;;;;10271667;28;20232;-74
2023/08/02 13:23:58;;;;;;;2.10;2.00;;;23.70;47.90;;;;;;10281909;28;20334;-75
2023/08/02 13:29:01;;;;;;;2.83;2.03;;;23.90;48.30;;;;;;10270001;28;20299;-74
2023/08/02 13:34:06;;;;;;;2.50;2.30;;;24.10;48.10;;;;;;10274100;28;20236;-74
2023/08/02 13:39:09;;;;;;;2.50;2.40;;;24.30;47.00;;;;;;10269812;28;20716;-74
2023/08/02 13:44:16;;;;;;;2.53;2.27;;;24.50;47.00;;;;;;10265650;28;20305;-75
2023/08/02 13:49:20;;;;;;;2.33;2.13;;;24.70;47.30;;;;;;10272394;28;20236;-74
2023/08/02 13:54:23;;;;;;;2.53;2.33;;;24.90;46.20;;;;;;10267010;28;20235;-75
2023/08/02 13:59:27;;;;;;;2.40;2.30;;;25.00;46.40;;;;;;10263934;28;20242;-75
2023/08/02 14:04:31;;;;;;;2.50;2.30;;;25.20;46.30;;;;;;10270683;28;20239;-75
2023/08/02 14:09:36;;;;;;;2.67;2.47;;;25.40;45.60;;;;;;10266901;28;20240;-75
2023/08/02 14:14:39;;;;;;;2.23;2.10;;;25.60;46.00;;;;;;10273085;28;20310;-76
2023/08/02 14:19:44;;;;;;;2.17;2.00;;;25.80;45.50;;;;;;10266014;28;20310;-75
2023/08/02 14:24:47;;;;;;;2.50;2.30;;;26.00;44.40;;;;;;10268809;28;20723;-75
2023/08/02 14:29:50;;;;;;;2.30;2.20;;;26.20;44.70;;;;;;10261935;28;20324;-75
2023/08/02 14:34:55;;;;;;;2.50;2.30;;;26.40;44.30;;;;;;10279307;28;20236;-75
2023/08/02 14:39:58;;;;;;;3.27;2.27;;;26.60;43.70;;;;;;10277934;28;20240;-75
2023/08/02 14:45:02;;;;;;;2.50;2.30;;;26.80;43.60;;;;;;10271345;28;20315;-76
2023/08/02 14:50:07;;;;;;;3.33;2.30;;;27.00;42.20;;;;;;10265201;28;20232;-75
2023/08/02 14:55:10;;;;;;;2.63;2.30;;;27.10;41.60;;;;;;10265400;28;20327;-75
2023/08/02 15:00:14;;;;;;;2.10;2.00;;;27.30;42.40;;;;;;10269477;28;20243;-75
2023/08/02 15:05:20;;;;;;;2.33;2.13;;;27.50;42.60;;;;;;10261224;28;21177;-75
2023/08/02 15:10:23;;;;;;;2.13;1.97;;;27.70;41.40;;;;;;10265001;28;20870;-75
2023/08/02 15:15:26;;;;;;;2.10;2.00;;;27.90;42.30;;;;;;10271320;28;20604;-76
2023/08/02 15:20:30;;;;;;;2.40;2.20;;;28.00;41.40;;;;;;10263501;28;20236;-75
2023/08/02 15:25:35;;;;;;;2.40;2.23;;;28.10;39.80;;;;;;10268933;28;20771;-75
2023/08/02 15:30:38;;;;;;;2.40;2.20;;;28.10;40.30;;;;;;10266781;28;20240;-75
2023/08/02 15:35:44;;;;;;;2.30;2.20;;;28.10;40.50;;;;;;10274414;28;20228;-75
2023/08/02 15:40:47;;;;;;;1.97;1.87;;;28.00;39.60;;;;;;10268272;28;21159;-75
2023/08/02 15:45:50;;;;;;;2.70;2.10;;;28.00;40.30;;;;;;10274841;28;21006;-75
2023/08/02 15:50:55;;;;;;;2.27;2.10;;;28.00;40.30;;;;;;10266930;28;20322;-76
2023/08/02 15:55:58;;;;;;;1.90;1.80;;;27.90;39.80;;;;;;10263429;28;20229;-76
2023/08/02 16:01:01;;;;;;;2.40;2.20;;;27.90;40.50;;;;;;10263637;28;20228;-76
2023/08/02 16:06:06;;;;;;;2.20;2.10;;;27.90;40.40;;;;;;10264627;28;20239;-75
2023/08/02 16:11:11;;;;;;;2.13;2.03;;;28.00;40.40;;;;;;10263486;28;20737;-76
2023/08/02 16:16:14;;;;;;;2.07;1.87;;;28.00;40.30;;;;;;10263807;28;20565;-75
2023/08/02 16:21:18;;;;;;;4.33;2.20;;;28.00;40.90;;;;;;10268338;28;20259;-75
2023/08/02 16:26:21;;;;;;;4.17;1.90;;;28.10;41.50;;;;;;10258004;28;20246;-76
2023/08/02 16:31:25;;;;;;;2.53;2.00;;;28.10;42.00;;;;;;10269677;28;20743;-76
2023/08/02 16:36:29;;;;;;;2.10;2.00;;;28.20;42.30;;;;;;10271412;28;20235;-76
2023/08/02 16:41:32;;;;;;;2.07;1.97;;;28.20;42.40;;;;;;10259848;28;20310;-76
2023/08/02 16:46:35;;;;;;;2.23;2.10;;;28.20;42.70;;;;;;10272280;28;20235;-76
2023/08/02 16:51:40;;;;;;;2.20;2.10;;;28.20;42.70;;;;;;10262095;28;20228;-76
2023/08/02 16:56:44;;;;;;;2.40;2.20;;;28.10;41.80;;;;;;10271335;28;20623;-76
2023/08/02 17:01:47;;;;;;;2.43;2.13;;;28.00;42.90;;;;;;10273009;28;20238;-76
2023/08/02 17:06:52;;;;;;;2.07;1.93;;;28.00;42.80;;;;;;10260761;28;20310;-76
2023/08/02 17:11:55;;;;;;;1.90;1.80;;;27.80;42.80;;;;;;10255601;28;20232;-76
2023/08/02 17:16:58;;;;;;;2.27;2.17;;;27.60;42.60;;;;;;10257094;28;20236;-77
2023/08/02 17:22:03;;;;;;;3.30;2.50;;;27.50;42.60;;;;;;10275537;28;20848;-76
2023/08/02 17:27:07;;;;;;;2.73;2.53;;;27.30;42.40;;;;;;10270519;28;20239;-75
2023/08/02 17:32:10;;;;;;;2.27;2.10;;;27.10;42.30;;;;;;10268611;28;20247;-74
2023/08/02 17:37:15;;;;;;;2.40;2.20;;;26.90;42.20;;;;;;10272318;28;20235;-76
2023/08/02 17:42:19;;;;;;;2.00;1.90;;;26.70;42.00;;;;;;10280662;28;20267;-76
2023/08/02 17:47:23;;;;;;;2.23;2.03;;;26.50;42.40;;;;;;10288355;28;20980;-76
2023/08/02 17:52:27;;;;;;;2.30;2.10;;;26.40;42.80;;;;;;10263864;28;20581;-75
2023/08/02 17:57:30;;;;;;;2.30;2.10;;;26.30;42.70;;;;;;10279698;28;20239;-76
2023/08/02 18:02:35;;;;;;;2.23;2.10;;;26.20;43.10;;;;;;10266325;28;20797;-76
2023/08/02 18:07:39;;;;;;;2.20;1.90;;;26.20;43.70;;;;;;10269994;28;20228;-76
2023/08/02 18:12:42;;;;;;;2.20;2.00;;;26.20;43.70;;;;;;10264779;28;20364;-76
2023/08/02 18:17:45;;;;;;;2.70;2.00;;;26.30;43.70;;;;;;10271917;28;20232;-77
2023/08/02 18:22:50;;;;;;;2.30;2.10;;;26.20;43.50;;;;;;10275125;28;20303;-77
2023/08/02 18:27:53;;;;;;;2.30;2.10;;;26.20;43.00;;;;;;10275563;28;20323;-75
2023/08/02 18:32:56;;;;;;;2.37;2.27;;;26.00;42.70;;;;;;10262915;28;20235;-76
2023/08/02 18:38:02;;;;;;;2.37;2.10;;;25.90;43.10;;;;;;10263601;28;20236;-78
2023/08/02 18:43:05;;;;;;;2.37;2.27;;;25.70;43.00;;;;;;10273636;28;20705;-77
2023/08/02 18:48:09;;;;;;;2.63;2.43;;;25.50;43.20;;;;;;10257577;28;20275;-75
2023/08/02 18:53:14;;;;;;;2.60;2.40;;;25.40;43.60;;;;;;10258547;28;20286;-75
2023/08/02 18:58:18;;;;;;;2.20;2.10;;;25.30;43.50;;;;;;10271269;28;20228;-79
2023/08/02 19:03:23;;;;;;;2.90;2.30;;;25.20;43.70;;;;;;10263589;28;20418;-77
2023/08/02 19:08:36;;;;;;;4.00;2.73;;;25.10;43.70;;;;;;10268683;28;20232;-77
2023/08/02 19:13:39;;;;;;;2.60;2.40;;;25.00;43.80;;;;;;10268395;28;20311;-76
2023/08/02 19:18:43;;;;;;;2.90;2.70;;;25.00;43.80;;;;;;10266018;28;20617;-75
2023/08/02 19:23:48;;;;;;;3.90;2.53;;;24.90;44.10;;;;;;10264784;28;20267;-74
2023/08/02 19:28:51;;;;;;;2.90;2.70;;;24.90;44.30;;;;;;10268769;28;20985;-75
2023/08/02 19:33:55;;;;;;;2.83;2.63;;;24.90;44.10;;;;;;10269234;28;20295;-75
2023/08/02 19:39:00;;;;;;;2.70;2.50;;;24.80;44.10;;;;;;10274419;28;20730;-74
2023/08/02 19:44:03;;;;;;;2.40;2.20;;;24.90;44.50;;;;;;10268537;28;20810;-76
2023/08/02 19:49:07;;;;;;;2.40;2.17;;;24.80;44.30;;;;;;10253040;28;20246;-76
2023/08/02 19:54:14;;;;;;;4.43;2.90;;;24.80;44.40;;;;;;10255774;28;20228;-76
2023/08/02 19:59:17;;;;;;;3.70;3.03;;;24.80;44.60;;;;;;10246846;28;20244;-75
2023/08/02 20:04:20;;;;;;;4.50;3.17;;;24.80;44.20;;;;;;10257274;28;20235;-76
2023/08/02 20:09:25;;;;;;;3.40;3.10;;;24.80;44.90;;;;;;10254354;28;20238;-75
2023/08/02 20:14:28;;;;;;;3.93;2.83;;;24.70;45.40;;;;;;10250817;28;20239;-75
2023/08/02 20:19:31;;;;;;;2.93;2.73;;;24.70;45.20;;;;;;10256303;28;20687;-75
2023/08/02 20:24:38;;;;;;;3.30;3.10;;;24.70;45.10;;;;;;10261628;28;20742;-75
2023/08/02 20:29:42;;;;;;;2.93;2.73;;;24.70;45.60;;;;;;10259749;28;20712;-75
2023/08/02 20:34:46;;;;;;;2.73;2.50;;;24.70;45.60;;;;;;10255462;28;20716;-75
2023/08/02 20:39:56;;;;;;;3.60;2.80;;;24.70;45.30;;;;;;10253987;28;20391;-75
2023/08/02 20:44:59;;;;;;;3.37;3.07;;;24.70;46.30;;;;;;10246349;28;20243;-75
2023/08/02 20:50:11;;;;;;;4.37;2.93;;;24.70;45.60;;;;;;10250424;28;20334;-75
2023/08/02 20:55:16;;;;;;;3.27;2.90;;;24.50;46.40;;;;;;10249821;28;20223;-75
2023/08/02 21:00:20;;;;;;;3.73;3.10;;;24.40;46.70;;;;;;10268075;28;20242;-75
2023/08/02 21:05:23;;;;;;;3.20;2.90;;;24.30;46.30;;;;;;10262014;28;20239;-74
2023/08/02 21:10:30;;;;;;;3.97;2.93;;;24.20;46.30;;;;;;10260726;28;20235;-75
2023/08/02 21:15:33;;;;;;;2.40;2.20;;;24.10;47.40;;;;;;10266523;28;20577;-74
2023/08/02 21:20:42;;;;;;;2.00;1.80;;;23.90;44.40;;;;;;10267280;28;20242;-75
2023/08/02 21:25:48;;;;;;;2.77;2.10;;;23.50;42.20;;;;;;10269016;28;20240;-75
2023/08/02 21:30:52;;;;;;;2.60;1.50;;;23.20;42.10;;;;;;10264977;28;20325;-75
2023/08/02 21:35:57;;;;;;;4.27;1.87;;;22.90;42.60;;;;;;10271054;28;20238;-75
2023/08/02 21:41:04;;;;;;;1.60;1.50;;;22.60;42.50;;;;;;10268814;28;20246;-75
2023/08/02 21:46:12;;;;;;;1.60;1.50;;;22.20;42.80;;;;;;10265497;28;20242;-75
2023/08/02 21:51:16;;;;;;;3.90;1.63;;;22.00;43.50;;;;;;10271521;28;20243;-74
2023/08/02 21:56:23;;;;;;;1.70;1.60;;;21.70;43.80;;;;;;10270076;28;20279;-75
2023/08/02 22:01:28;;;;;;;2.93;2.10;;;21.40;44.70;;;;;;10269667;28;20720;-75
2023/08/02 22:06:33;;;;;;;2.57;1.80;;;21.20;44.90;;;;;;10272809;28;20242;-75
2023/08/02 22:11:38;;;;;;;2.00;1.80;;;21.10;45.30;;;;;;10268842;28;20723;-75
2023/08/02 22:16:43;;;;;;;2.53;1.70;;;21.00;45.70;;;;;;10266905;28;20528;-75
2023/08/02 22:21:46;;;;;;;1.73;1.63;;;20.90;46.20;;;;;;10265083;28;20287;-74
2023/08/02 22:26:52;;;;;;;1.80;1.60;;;20.80;46.20;;;;;;10263534;28;20736;-73
2023/08/02 22:31:55;;;;;;;1.70;1.60;;;20.90;47.00;;;;;;10260946;28;20250;-74
2023/08/02 22:36:58;;;;;;;2.33;1.57;;;20.90;46.70;;;;;;10262595;28;20243;-74
2023/08/02 22:42:03;;;;;;;1.90;1.70;;;20.90;46.90;;;;;;10267349;28;20263;-74
2023/08/02 22:47:06;;;;;;;1.40;1.30;;;20.90;47.50;;;;;;10261330;28;20756;-74
2023/08/02 22:52:10;;;;;;;1.60;1.50;;;20.90;47.10;;;;;;10261854;28;20561;-74
2023/08/02 22:57:22;;;;;;;2.07;1.40;;;20.90;47.20;;;;;;10260075;28;20251;-74
2023/08/02 23:02:29;;;;;;;1.60;1.50;;;20.90;48.40;;;;;;10264479;28;20692;-74
2023/08/02 23:07:35;;;;;;;1.93;1.40;;;20.90;48.00;;;;;;10264554;28;20704;-74
2023/08/02 23:12:40;;;;;;;1.70;1.60;;;20.90;47.60;;;;;;10270743;28;20234;-74
2023/08/02 23:17:43;;;;;;;2.03;1.60;;;20.80;47.80;;;;;;10265182;28;20243;-74
2023/08/02 23:22:46;;;;;;;2.07;1.50;;;20.80;47.30;;;;;;10264225;28;20242;-74
2023/08/02 23:27:51;;;;;;;1.50;1.20;;;20.80;47.40;;;;;;10265440;28;20352;-74
2023/08/02 23:32:54;;;;;;;4.30;1.40;;;20.70;48.20;;;;;;10263095;28;20743;-74
2023/08/02 23:37:57;;;;;;;1.77;1.43;;;20.70;47.70;;;;;;10263371;28;20240;-74
2023/08/02 23:43:02;;;;;;;2.13;1.40;;;20.70;47.70;;;;;;10260132;28;20371;-74
2023/08/02 23:48:05;;;;;;;1.83;1.30;;;20.60;48.50;;;;;;10261482;28;20235;-74
2023/08/02 23:53:08;;;;;;;1.73;1.33;;;20.60;48.20;;;;;;10267211;28;20915;-75
2023/08/02 23:58:14;;;;;;;2.90;1.47;;;20.50;48.20;;;;;;10259649;28;20256;-74
